Terminal Aerodrome Forecast
Issued by NWS Sterling, VA

Current Version | Previous Version | Graphics & Text | Print | Product List | Glossary On
Versions: 1 2 3 4 5 6 7 8 9 10 11 12 13 14 15 16 17 18 19 20 21 22 23 24 25 26 27 28 29 30 31
000
FTUS41 KLWX 202100 AAA
TAFDCA
TAF AMD
KDCA 202116Z 2021/2118 19010KT P6SM BKN200
     FM210300 20006KT P6SM BKN110
     FM211600 25005KT P6SM BKN050=

USA.gov is the U.S. government's official web portal to all federal, state and local government web resources and services.